sensor_id;sensor_type;location;lat;lon;timestamp;pressure;altitude;pressure_sealevel;temperature;humidity
75188;BME280;63762;51.334;22.108;2022-11-20T00:06:02;101685.62;;;-3.11;66.03
75188;BME280;63762;51.334;22.108;2022-11-20T00:16:06;101672.48;;;-3.13;66.58
75188;BME280;63762;51.334;22.108;2022-11-20T00:26:15;101678.51;;;-3.03;66.22
75188;BME280;63762;51.334;22.108;2022-11-20T00:36:21;101660.93;;;-2.98;66.07
75188;BME280;63762;51.334;22.108;2022-11-20T00:46:26;101661.77;;;-2.96;66.02
75188;BME280;63762;51.334;22.108;2022-11-20T00:56:30;101655.64;;;-2.95;66.25
75188;BME280;63762;51.334;22.108;2022-11-20T01:06:39;101648.59;;;-2.95;66.13
75188;BME280;63762;51.334;22.108;2022-11-20T01:16:48;101634.50;;;-2.89;65.93
75188;BME280;63762;51.334;22.108;2022-11-20T01:26:52;101638.84;;;-2.84;66.10
75188;BME280;63762;51.334;22.108;2022-11-20T01:36:59;101625.47;;;-2.67;66.11
75188;BME280;63762;51.334;22.108;2022-11-20T01:47:08;101600.69;;;-2.51;66.13
75188;BME280;63762;51.334;22.108;2022-11-20T01:57:14;101598.77;;;-2.37;66.40
75188;BME280;63762;51.334;22.108;2022-11-20T02:07:21;101608.36;;;-2.32;66.67
75188;BME280;63762;51.334;22.108;2022-11-20T02:17:28;101611.78;;;-2.27;66.88
75188;BME280;63762;51.334;22.108;2022-11-20T02:27:35;101609.05;;;-2.19;67.01
75188;BME280;63762;51.334;22.108;2022-11-20T02:37:42;101609.05;;;-2.20;66.80
75188;BME280;63762;51.334;22.108;2022-11-20T02:47:50;101607.32;;;-2.20;66.39
75188;BME280;63762;51.334;22.108;2022-11-20T02:57:56;101598.58;;;-2.25;66.54
75188;BME280;63762;51.334;22.108;2022-11-20T03:08:03;101582.80;;;-2.27;66.63
75188;BME280;63762;51.334;22.108;2022-11-20T03:18:10;101589.89;;;-2.30;66.25
75188;BME280;63762;51.334;22.108;2022-11-20T03:28:18;101596.99;;;-2.37;66.78
75188;BME280;63762;51.334;22.108;2022-11-20T03:38:25;101602.12;;;-2.26;67.74
75188;BME280;63762;51.334;22.108;2022-11-20T03:48:32;101584.22;;;-2.03;67.94
75188;BME280;63762;51.334;22.108;2022-11-20T03:58:40;101582.19;;;-1.86;67.91
75188;BME280;63762;51.334;22.108;2022-11-20T04:08:47;101566.17;;;-1.74;67.88
75188;BME280;63762;51.334;22.108;2022-11-20T04:18:55;101555.45;;;-1.63;67.78
75188;BME280;63762;51.334;22.108;2022-11-20T04:29:00;101532.65;;;-1.66;67.51
75188;BME280;63762;51.334;22.108;2022-11-20T04:39:12;101541.48;;;-1.70;67.24
75188;BME280;63762;51.334;22.108;2022-11-20T04:49:15;101529.35;;;-1.80;67.02
75188;BME280;63762;51.334;22.108;2022-11-20T04:59:22;101519.77;;;-1.84;67.63
75188;BME280;63762;51.334;22.108;2022-11-20T05:09:30;101525.99;;;-1.88;67.89
75188;BME280;63762;51.334;22.108;2022-11-20T05:19:36;101522.47;;;-1.88;68.04
75188;BME280;63762;51.334;22.108;2022-11-20T05:29:43;101507.58;;;-1.91;67.82
75188;BME280;63762;51.334;22.108;2022-11-20T05:39:50;101505.05;;;-1.97;68.03
75188;BME280;63762;51.334;22.108;2022-11-20T05:49:58;101492.87;;;-2.04;68.37
75188;BME280;63762;51.334;22.108;2022-11-20T06:00:06;101504.28;;;-2.05;68.63
75188;BME280;63762;51.334;22.108;2022-11-20T06:10:12;101510.41;;;-2.03;68.96
75188;BME280;63762;51.334;22.108;2022-11-20T06:20:20;101514.77;;;-2.02;69.14
75188;BME280;63762;51.334;22.108;2022-11-20T06:30:26;101516.54;;;-2.01;69.66
75188;BME280;63762;51.334;22.108;2022-11-20T06:40:33;101507.63;;;-1.94;69.89
75188;BME280;63762;51.334;22.108;2022-11-20T06:50:41;101504.77;;;-1.80;70.22
75188;BME280;63762;51.334;22.108;2022-11-20T07:00:48;101502.68;;;-1.62;70.31
75188;BME280;63762;51.334;22.108;2022-11-20T07:10:59;101481.21;;;-1.44;70.36
75188;BME280;63762;51.334;22.108;2022-11-20T07:21:03;101495.04;;;-1.30;70.41
75188;BME280;63762;51.334;22.108;2022-11-20T07:31:09;101482.55;;;-1.22;71.05
75188;BME280;63762;51.334;22.108;2022-11-20T07:41:16;101481.28;;;-1.03;70.97
75188;BME280;63762;51.334;22.108;2022-11-20T07:51:23;101486.34;;;-0.92;71.19
75188;BME280;63762;51.334;22.108;2022-11-20T08:01:31;101479.02;;;-0.80;71.44
75188;BME280;63762;51.334;22.108;2022-11-20T08:11:38;101468.43;;;-0.78;71.82
75188;BME280;63762;51.334;22.108;2022-11-20T08:21:51;101476.84;;;-1.01;73.47
75188;BME280;63762;51.334;22.108;2022-11-20T08:31:52;101459.59;;;-0.76;73.73
75188;BME280;63762;51.334;22.108;2022-11-20T08:41:59;101465.62;;;-0.71;74.05
75188;BME280;63762;51.334;22.108;2022-11-20T08:52:07;101460.17;;;-0.63;74.16
75188;BME280;63762;51.334;22.108;2022-11-20T09:02:13;101439.33;;;-0.39;73.89
75188;BME280;63762;51.334;22.108;2022-11-20T09:12:21;101431.74;;;-0.17;73.54
75188;BME280;63762;51.334;22.108;2022-11-20T09:22:28;101426.38;;;-0.14;73.59
75188;BME280;63762;51.334;22.108;2022-11-20T09:32:35;101425.13;;;0.00;73.16
75188;BME280;63762;51.334;22.108;2022-11-20T10:03:16;101417.72;;;-0.19;74.46
75188;BME280;63762;51.334;22.108;2022-11-20T10:13:32;101407.69;;;-0.07;74.08
75188;BME280;63762;51.334;22.108;2022-11-20T10:23:45;101402.77;;;-0.22;73.76
75188;BME280;63762;51.334;22.108;2022-11-20T10:33:47;101404.76;;;-0.30;74.29
75188;BME280;63762;51.334;22.108;2022-11-20T10:44:03;101413.42;;;-0.25;74.84
75188;BME280;63762;51.334;22.108;2022-11-20T10:54:18;101414.24;;;-0.58;75.33
75188;BME280;63762;51.334;22.108;2022-11-20T11:04:38;101405.12;;;-0.10;74.91
75188;BME280;63762;51.334;22.108;2022-11-20T11:14:50;101384.23;;;0.14;73.74
75188;BME280;63762;51.334;22.108;2022-11-20T11:24:52;101396.57;;;0.15;72.69
75188;BME280;63762;51.334;22.108;2022-11-20T11:35:00;101395.45;;;0.23;73.16
75188;BME280;63762;51.334;22.108;2022-11-20T11:45:01;101357.37;;;0.29;72.83
75188;BME280;63762;51.334;22.108;2022-11-20T11:55:09;101353.38;;;0.45;72.19
75188;BME280;63762;51.334;22.108;2022-11-20T12:05:24;101334.59;;;0.54;72.30
75188;BME280;63762;51.334;22.108;2022-11-20T12:15:32;101319.83;;;0.74;71.43
75188;BME280;63762;51.334;22.108;2022-11-20T12:25:36;101305.25;;;0.89;70.98
75188;BME280;63762;51.334;22.108;2022-11-20T13:06:19;101272.22;;;1.28;68.77
75188;BME280;63762;51.334;22.108;2022-11-20T13:16:32;101272.76;;;1.37;68.81
75188;BME280;63762;51.334;22.108;2022-11-20T13:26:33;101297.74;;;1.30;67.66
75188;BME280;63762;51.334;22.108;2022-11-20T13:36:34;101286.06;;;1.36;68.00
75188;BME280;63762;51.334;22.108;2022-11-20T13:46:43;101270.88;;;1.41;67.70
75188;BME280;63762;51.334;22.108;2022-11-20T13:56:53;101267.90;;;1.24;66.78
75188;BME280;63762;51.334;22.108;2022-11-20T14:06:57;101275.09;;;0.94;67.44
75188;BME280;63762;51.334;22.108;2022-11-20T14:17:07;101290.28;;;0.88;68.25
75188;BME280;63762;51.334;22.108;2022-11-20T14:27:16;101262.50;;;1.01;67.29
75188;BME280;63762;51.334;22.108;2022-11-20T14:37:24;101263.98;;;1.09;66.71
75188;BME280;63762;51.334;22.108;2022-11-20T14:47:29;101230.62;;;1.04;66.58
75188;BME280;63762;51.334;22.108;2022-11-20T14:57:33;101227.37;;;0.96;66.44
75188;BME280;63762;51.334;22.108;2022-11-20T15:07:38;101219.07;;;0.79;66.93
75188;BME280;63762;51.334;22.108;2022-11-20T15:17:42;101226.55;;;0.66;66.66
75188;BME280;63762;51.334;22.108;2022-11-20T15:27:44;101228.86;;;0.49;67.35
75188;BME280;63762;51.334;22.108;2022-11-20T15:37:45;101228.44;;;0.34;68.06
75188;BME280;63762;51.334;22.108;2022-11-20T15:47:46;101220.05;;;0.20;67.49
75188;BME280;63762;51.334;22.108;2022-11-20T15:57:48;101213.35;;;0.08;68.08
75188;BME280;63762;51.334;22.108;2022-11-20T16:07:50;101234.98;;;-0.09;68.75
75188;BME280;63762;51.334;22.108;2022-11-20T16:17:52;101229.09;;;-0.18;68.49
75188;BME280;63762;51.334;22.108;2022-11-20T16:27:53;101224.05;;;-0.27;69.00
75188;BME280;63762;51.334;22.108;2022-11-20T16:37:55;101235.67;;;-0.33;68.83
75188;BME280;63762;51.334;22.108;2022-11-20T16:47:56;101225.26;;;-0.39;69.63
75188;BME280;63762;51.334;22.108;2022-11-20T16:57:58;101226.30;;;-0.44;70.15
75188;BME280;63762;51.334;22.108;2022-11-20T17:07:59;101227.41;;;-0.53;70.28
75188;BME280;63762;51.334;22.108;2022-11-20T17:18:03;101203.67;;;-0.54;70.27
75188;BME280;63762;51.334;22.108;2022-11-20T17:28:11;101183.63;;;-0.61;70.52
75188;BME280;63762;51.334;22.108;2022-11-20T17:38:18;101187.07;;;-0.59;71.05
75188;BME280;63762;51.334;22.108;2022-11-20T17:48:25;101162.16;;;-0.51;71.68
75188;BME280;63762;51.334;22.108;2022-11-20T17:58:32;101149.88;;;-0.52;71.45
75188;BME280;63762;51.334;22.108;2022-11-20T18:08:40;101134.27;;;-0.61;71.28
75188;BME280;63762;51.334;22.108;2022-11-20T18:18:46;101150.99;;;-0.60;71.11
75188;BME280;63762;51.334;22.108;2022-11-20T18:28:53;101135.31;;;-0.66;71.26
75188;BME280;63762;51.334;22.108;2022-11-20T18:39:01;101137.83;;;-0.62;71.35
75188;BME280;63762;51.334;22.108;2022-11-20T18:49:08;101137.88;;;-0.63;71.49
75188;BME280;63762;51.334;22.108;2022-11-20T18:59:17;101123.79;;;-0.64;71.58
75188;BME280;63762;51.334;22.108;2022-11-20T19:40:22;101079.89;;;-0.68;73.46
75188;BME280;63762;51.334;22.108;2022-11-20T19:50:23;101084.34;;;-0.70;72.85
75188;BME280;63762;51.334;22.108;2022-11-20T20:00:24;101075.73;;;-0.76;73.82
75188;BME280;63762;51.334;22.108;2022-11-20T20:13:10;101070.02;;;-0.92;75.84
75188;BME280;63762;51.334;22.108;2022-11-20T20:23:17;101060.85;;;-0.79;76.36
75188;BME280;63762;51.334;22.108;2022-11-20T20:33:24;101080.72;;;-0.66;76.51
75188;BME280;63762;51.334;22.108;2022-11-20T20:43:32;101076.86;;;-0.54;76.50
75188;BME280;63762;51.334;22.108;2022-11-20T20:53:44;101079.28;;;-0.47;76.25
75188;BME280;63762;51.334;22.108;2022-11-20T21:03:46;101082.55;;;-0.39;76.82
75188;BME280;63762;51.334;22.108;2022-11-20T21:13:53;101071.58;;;-0.25;76.82
75188;BME280;63762;51.334;22.108;2022-11-20T21:24:01;101077.57;;;-0.20;76.45
75188;BME280;63762;51.334;22.108;2022-11-20T21:34:10;101087.48;;;-0.27;76.70
75188;BME280;63762;51.334;22.108;2022-11-20T21:44:14;101077.84;;;-0.29;77.08
75188;BME280;63762;51.334;22.108;2022-11-20T21:54:21;101071.23;;;-0.44;77.93
75188;BME280;63762;51.334;22.108;2022-11-20T22:04:29;101082.98;;;-0.54;78.38
75188;BME280;63762;51.334;22.108;2022-11-20T22:14:36;101090.37;;;-0.65;79.30
75188;BME280;63762;51.334;22.108;2022-11-20T22:24:43;101086.63;;;-0.58;79.48
75188;BME280;63762;51.334;22.108;2022-11-20T22:34:50;101099.68;;;-0.52;79.62
75188;BME280;63762;51.334;22.108;2022-11-20T22:44:57;101088.54;;;-0.32;79.08
75188;BME280;63762;51.334;22.108;2022-11-20T22:55:05;101076.64;;;-0.18;78.89
75188;BME280;63762;51.334;22.108;2022-11-20T23:05:12;101064.13;;;0.15;78.04
75188;BME280;63762;51.334;22.108;2022-11-20T23:15:19;101070.00;;;0.25;77.28
75188;BME280;63762;51.334;22.108;2022-11-20T23:25:26;101052.19;;;0.30;76.91
75188;BME280;63762;51.334;22.108;2022-11-20T23:35:37;101076.77;;;0.33;77.14
75188;BME280;63762;51.334;22.108;2022-11-20T23:45:45;101065.27;;;0.34;76.89
75188;BME280;63762;51.334;22.108;2022-11-20T23:55:52;101060.26;;;0.25;77.24
